Time;durP1;ratioP1;P1;durP2;ratioP2;P2;SDS_P1;SDS_P2;PMS_P1;PMS_P2;Temp;Humidity;BMP_temperature;BMP_pressure;BME280_temperature;BME280_humidity;BME280_pressure;Samples;Min_cycle;Max_cycle;Signal;HPM_P1;HPM_P2
2022/01/05 00:03:09;;;;;;;610.08;374.25;;;;;;;;;;5090200;28;20816;-61
2022/01/05 00:05:36;;;;;;;593.15;358.35;;;;;;;;;;5070367;28;20098;-62
2022/01/05 00:08:02;;;;;;;579.60;341.52;;;;;;;;;;5070483;28;20062;-62
2022/01/05 00:10:28;;;;;;;583.00;341.45;;;;;;;;;;5070005;28;20024;-61
2022/01/05 00:12:54;;;;;;;553.78;327.00;;;;;;;;;;5070530;28;20167;-62
2022/01/05 00:15:20;;;;;;;543.95;315.80;;;;;;;;;;5070180;28;20040;-61
2022/01/05 00:17:46;;;;;;;549.67;312.80;;;;;;;;;;5069953;28;20104;-61
2022/01/05 00:20:13;;;;;;;521.08;302.73;;;;;;;;;;5070393;28;20029;-61
2022/01/05 00:22:39;;;;;;;531.25;298.88;;;;;;;;;;5070168;28;20029;-61
2022/01/05 00:25:06;;;;;;;509.65;286.77;;;;;;;;;;5069936;28;20493;-61
2022/01/05 00:27:32;;;;;;;463.80;263.17;;;;;;;;;;5069953;28;20033;-62
2022/01/05 00:29:58;;;;;;;517.53;289.55;;;;;;;;;;5069653;28;20031;-62
2022/01/05 00:32:25;;;;;;;528.17;293.20;;;;;;;;;;5070014;28;20029;-62
2022/01/05 00:34:52;;;;;;;423.58;240.43;;;;;;;;;;5070084;28;20023;-62
2022/01/05 00:37:18;;;;;;;303.83;157.52;;;;;;;;;;5069684;28;20496;-61
2022/01/05 00:39:45;;;;;;;229.20;121.07;;;;;;;;;;5067935;28;20025;-61
2022/01/05 00:42:11;;;;;;;210.52;107.80;;;;;;;;;;5069562;28;20032;-62
2022/01/05 00:44:37;;;;;;;191.85;97.93;;;;;;;;;;5069560;28;20052;-61
2022/01/05 00:47:04;;;;;;;195.15;98.68;;;;;;;;;;5069276;28;20024;-62
2022/01/05 00:49:30;;;;;;;183.15;93.80;;;;;;;;;;5069095;28;20424;-63
2022/01/05 00:51:56;;;;;;;203.45;101.45;;;;;;;;;;5068977;28;20406;-63
2022/01/05 00:54:22;;;;;;;182.32;89.75;;;;;;;;;;5069343;28;20530;-62
2022/01/05 00:56:48;;;;;;;173.95;88.70;;;;;;;;;;5069295;28;20033;-62
2022/01/05 00:59:15;;;;;;;164.10;83.20;;;;;;;;;;5068971;28;20537;-62
2022/01/05 01:01:41;;;;;;;154.20;79.47;;;;;;;;;;5069382;28;20044;-62
2022/01/05 01:04:07;;;;;;;161.90;79.05;;;;;;;;;;5055721;28;20023;-62
2022/01/05 01:06:33;;;;;;;128.93;71.47;;;;;;;;;;5055603;28;20029;-62
2022/01/05 01:09:00;;;;;;;295.55;157.07;;;;;;;;;;5056127;28;20056;-62
2022/01/05 01:11:26;;;;;;;285.35;145.70;;;;;;;;;;5054772;28;20021;-62
2022/01/05 01:13:52;;;;;;;315.00;165.25;;;;;;;;;;5055078;28;20498;-63
2022/01/05 01:16:19;;;;;;;330.23;170.43;;;;;;;;;;5056279;28;20028;-63
2022/01/05 01:18:45;;;;;;;315.17;169.13;;;;;;;;;;5055920;28;20013;-63
2022/01/05 01:21:11;;;;;;;306.17;164.00;;;;;;;;;;5055368;28;20168;-63
2022/01/05 01:23:38;;;;;;;432.70;232.13;;;;;;;;;;5055471;28;20017;-63
2022/01/05 01:26:04;;;;;;;426.92;230.65;;;;;;;;;;5054388;28;20439;-63
2022/01/05 01:28:34;;;;;;;491.20;269.67;;;;;;;;;;5055793;28;20021;-63
2022/01/05 01:31:00;;;;;;;503.40;279.98;;;;;;;;;;5055657;28;20049;-63
2022/01/05 01:33:26;;;;;;;479.20;254.18;;;;;;;;;;5054761;28;20025;-63
2022/01/05 01:35:52;;;;;;;473.35;263.30;;;;;;;;;;5054906;28;20024;-63
2022/01/05 01:38:18;;;;;;;459.50;247.07;;;;;;;;;;5054453;28;20367;-63
2022/01/05 01:40:44;;;;;;;461.73;256.40;;;;;;;;;;5054961;28;20503;-63
2022/01/05 01:43:11;;;;;;;456.55;244.68;;;;;;;;;;5055205;28;20389;-63
2022/01/05 01:45:37;;;;;;;471.65;261.77;;;;;;;;;;5055747;28;20025;-63
2022/01/05 01:48:03;;;;;;;519.25;284.70;;;;;;;;;;5054789;28;20029;-63
2022/01/05 01:50:30;;;;;;;528.15;290.02;;;;;;;;;;5055147;28;20078;-63
2022/01/05 01:52:56;;;;;;;511.73;280.85;;;;;;;;;;5055077;28;20025;-63
2022/01/05 01:55:22;;;;;;;540.72;296.05;;;;;;;;;;5054181;28;20044;-63
2022/01/05 01:57:48;;;;;;;447.00;245.77;;;;;;;;;;5055043;28;20037;-62
2022/01/05 02:00:15;;;;;;;454.85;242.73;;;;;;;;;;5055359;28;20044;-62
2022/01/05 02:02:43;;;;;;;458.75;253.88;;;;;;;;;;5054914;28;20060;-62
2022/01/05 02:05:09;;;;;;;468.30;254.32;;;;;;;;;;5054853;28;20017;-62
2022/01/05 02:07:35;;;;;;;437.52;236.15;;;;;;;;;;5055075;28;20021;-63
2022/01/05 02:10:04;;;;;;;495.73;274.58;;;;;;;;;;5054418;28;20425;-62
2022/01/05 02:12:30;;;;;;;483.25;265.58;;;;;;;;;;5053489;28;20386;-62
2022/01/05 02:14:56;;;;;;;467.65;256.90;;;;;;;;;;5053611;28;20021;-62
2022/01/05 02:17:30;;;;;;;379.75;204.85;;;;;;;;;;5053446;28;20023;-61
2022/01/05 02:19:57;;;;;;;402.83;219.13;;;;;;;;;;5054760;28;20033;-61
2022/01/05 02:22:23;;;;;;;374.83;199.90;;;;;;;;;;5054119;28;20023;-61
2022/01/05 02:24:49;;;;;;;613.85;351.20;;;;;;;;;;5054321;28;20017;-61
2022/01/05 02:27:15;;;;;;;387.23;209.80;;;;;;;;;;5054417;28;20083;-61
2022/01/05 02:29:42;;;;;;;380.27;211.68;;;;;;;;;;5053839;28;20026;-61
2022/01/05 02:32:08;;;;;;;408.23;218.70;;;;;;;;;;5054291;28;20100;-61
2022/01/05 02:34:34;;;;;;;420.42;236.10;;;;;;;;;;5054216;28;20497;-61
2022/01/05 02:37:00;;;;;;;415.25;237.13;;;;;;;;;;5054149;28;20463;-61
2022/01/05 02:39:27;;;;;;;397.23;224.88;;;;;;;;;;5054419;28;20048;-60
2022/01/05 02:41:53;;;;;;;418.98;236.43;;;;;;;;;;5054251;28;20025;-61
2022/01/05 02:44:19;;;;;;;441.08;240.68;;;;;;;;;;5054133;28;20025;-61
2022/01/05 02:46:46;;;;;;;445.88;243.52;;;;;;;;;;5052965;28;20036;-61
2022/01/05 02:49:12;;;;;;;429.13;236.38;;;;;;;;;;5053890;28;20028;-61
2022/01/05 02:51:38;;;;;;;419.13;233.25;;;;;;;;;;5053490;28;20086;-61
2022/01/05 02:54:05;;;;;;;413.00;225.27;;;;;;;;;;5053889;28;20028;-61
2022/01/05 02:56:31;;;;;;;413.40;229.95;;;;;;;;;;5053481;28;20103;-62
2022/01/05 02:58:57;;;;;;;425.17;237.55;;;;;;;;;;5053448;28;20029;-61
2022/01/05 03:01:24;;;;;;;443.67;248.60;;;;;;;;;;5053671;28;20132;-62
2022/01/05 03:03:50;;;;;;;429.85;238.98;;;;;;;;;;5053976;28;20017;-61
2022/01/05 03:06:16;;;;;;;417.48;240.65;;;;;;;;;;5053561;28;20049;-62
2022/01/05 03:08:42;;;;;;;418.55;232.35;;;;;;;;;;5053754;28;20025;-61
2022/01/05 03:11:08;;;;;;;432.42;234.45;;;;;;;;;;5053388;28;20025;-61
2022/01/05 03:13:35;;;;;;;430.75;237.93;;;;;;;;;;5053357;28;20059;-62
2022/01/05 03:16:01;;;;;;;453.77;249.32;;;;;;;;;;5053261;28;20025;-61
2022/01/05 03:18:27;;;;;;;466.38;256.40;;;;;;;;;;5053413;28;20499;-61
2022/01/05 03:20:53;;;;;;;429.77;228.60;;;;;;;;;;5053465;28;20025;-61
2022/01/05 03:23:19;;;;;;;451.73;245.30;;;;;;;;;;5053432;28;20066;-61
2022/01/05 03:25:45;;;;;;;378.25;205.95;;;;;;;;;;5052220;28;20525;-61
2022/01/05 03:28:12;;;;;;;342.08;181.77;;;;;;;;;;5053558;28;20429;-61
2022/01/05 03:30:38;;;;;;;300.98;151.18;;;;;;;;;;5053460;28;20025;-61
2022/01/05 03:33:19;;;;;;;288.77;148.90;;;;;;;;;;5053172;28;20029;-61
2022/01/05 03:35:46;;;;;;;255.00;132.70;;;;;;;;;;5053518;28;20017;-61
2022/01/05 03:38:13;;;;;;;296.33;144.10;;;;;;;;;;5053369;28;20024;-60
2022/01/05 03:40:39;;;;;;;222.38;113.82;;;;;;;;;;5053126;28;20021;-61
2022/01/05 03:43:07;;;;;;;241.77;119.15;;;;;;;;;;5053186;28;20063;-61
2022/01/05 03:45:35;;;;;;;237.45;114.75;;;;;;;;;;5053300;28;20056;-61
2022/01/05 03:48:01;;;;;;;230.93;116.35;;;;;;;;;;5052681;28;20055;-61
2022/01/05 03:50:28;;;;;;;184.73;94.35;;;;;;;;;;5053002;28;20021;-61
2022/01/05 03:52:54;;;;;;;158.77;82.50;;;;;;;;;;5053062;28;20078;-62
2022/01/05 03:55:20;;;;;;;143.48;75.22;;;;;;;;;;5053059;28;20151;-61
2022/01/05 03:57:46;;;;;;;139.98;70.47;;;;;;;;;;5052060;28;20437;-61
2022/01/05 04:00:13;;;;;;;143.57;75.05;;;;;;;;;;5052727;28;20501;-62
2022/01/05 04:02:39;;;;;;;130.68;63.83;;;;;;;;;;5053374;28;20494;-61
2022/01/05 04:05:05;;;;;;;113.18;56.53;;;;;;;;;;5052076;28;20095;-61
2022/01/05 04:07:31;;;;;;;99.68;51.42;;;;;;;;;;5052631;28;20127;-61
2022/01/05 04:09:57;;;;;;;94.82;49.83;;;;;;;;;;5052694;28;20021;-61
2022/01/05 04:12:24;;;;;;;95.57;47.67;;;;;;;;;;5052792;28;20459;-61
2022/01/05 04:14:50;;;;;;;97.57;50.92;;;;;;;;;;5052805;28;20415;-62
2022/01/05 04:17:16;;;;;;;102.15;51.45;;;;;;;;;;5052795;28;20029;-62
2022/01/05 04:19:42;;;;;;;109.28;53.20;;;;;;;;;;5052300;28;20491;-62
2022/01/05 04:22:09;;;;;;;99.18;52.25;;;;;;;;;;5052424;28;20045;-61
2022/01/05 04:24:35;;;;;;;101.60;52.10;;;;;;;;;;5052096;28;20045;-61
2022/01/05 04:27:01;;;;;;;102.20;52.60;;;;;;;;;;5052978;28;20078;-61
2022/01/05 04:29:27;;;;;;;99.70;51.83;;;;;;;;;;5052101;28;20049;-62
2022/01/05 04:31:53;;;;;;;102.85;53.60;;;;;;;;;;5052601;28;20040;-61
2022/01/05 04:34:20;;;;;;;106.63;50.38;;;;;;;;;;5052834;28;20021;-61
2022/01/05 04:36:46;;;;;;;104.65;53.00;;;;;;;;;;5052555;28;20490;-62
2022/01/05 04:39:12;;;;;;;105.63;53.53;;;;;;;;;;5055900;28;20429;-61
2022/01/05 04:41:38;;;;;;;109.55;54.53;;;;;;;;;;5055943;28;20047;-62
2022/01/05 04:44:04;;;;;;;111.28;54.15;;;;;;;;;;5054814;28;20051;-63
2022/01/05 04:46:31;;;;;;;114.78;59.67;;;;;;;;;;5054699;28;20025;-63
2022/01/05 04:48:57;;;;;;;128.50;65.15;;;;;;;;;;5054406;28;20028;-60
2022/01/05 04:51:23;;;;;;;158.43;82.18;;;;;;;;;;5054539;28;20028;-60
2022/01/05 04:53:51;;;;;;;208.68;107.65;;;;;;;;;;5054415;28;20108;-60
2022/01/05 04:56:17;;;;;;;216.80;110.03;;;;;;;;;;5054176;28;20017;-62
2022/01/05 04:58:43;;;;;;;193.65;100.13;;;;;;;;;;5055301;28;20028;-60
2022/01/05 05:01:09;;;;;;;182.93;95.10;;;;;;;;;;5055396;28;20045;-61
2022/01/05 05:03:35;;;;;;;184.02;94.22;;;;;;;;;;5054273;28;20024;-61
2022/01/05 05:06:02;;;;;;;425.27;216.65;;;;;;;;;;5056086;28;20387;-61
2022/01/05 05:08:28;;;;;;;147.40;74.22;;;;;;;;;;5056064;28;20029;-61
2022/01/05 05:10:54;;;;;;;138.30;70.45;;;;;;;;;;5055865;28;20031;-61
2022/01/05 05:13:20;;;;;;;244.27;111.32;;;;;;;;;;5056155;28;20029;-61
2022/01/05 05:15:46;;;;;;;116.05;55.05;;;;;;;;;;5054951;28;20029;-61
2022/01/05 05:18:12;;;;;;;143.68;67.90;;;;;;;;;;5054352;28;20025;-62
2022/01/05 05:20:40;;;;;;;96.65;48.60;;;;;;;;;;5054902;28;20025;-62
2022/01/05 05:23:06;;;;;;;158.93;67.93;;;;;;;;;;5054179;28;20032;-62
2022/01/05 05:25:33;;;;;;;73.32;34.53;;;;;;;;;;5053013;28;20021;-60
2022/01/05 05:27:59;;;;;;;65.22;33.65;;;;;;;;;;5055115;28;20027;-62
2022/01/05 05:30:25;;;;;;;274.30;117.18;;;;;;;;;;5056010;28;20047;-61
2022/01/05 05:32:54;;;;;;;62.55;33.28;;;;;;;;;;5054634;28;20033;-62
2022/01/05 05:35:21;;;;;;;70.00;35.03;;;;;;;;;;5054890;28;20017;-61
2022/01/05 05:37:47;;;;;;;72.15;35.22;;;;;;;;;;5055512;28;20467;-62
2022/01/05 05:40:13;;;;;;;77.30;35.67;;;;;;;;;;5055194;28;20021;-62
2022/01/05 05:42:39;;;;;;;80.03;38.10;;;;;;;;;;5055234;28;20021;-62
2022/01/05 05:48:08;;;;;;;56.60;29.10;;;;;;;;;;5089946;27;20842;-61
2022/01/05 05:50:35;;;;;;;60.30;31.55;;;;;;;;;;5091288;28;20063;-62
2022/01/05 05:53:01;;;;;;;55.00;27.10;;;;;;;;;;5089542;28;20017;-62
2022/01/05 05:55:27;;;;;;;142.00;68.82;;;;;;;;;;5091111;28;20034;-62
2022/01/05 05:57:53;;;;;;;50.25;23.58;;;;;;;;;;5091228;28;20474;-62
2022/01/05 06:00:19;;;;;;;49.67;26.23;;;;;;;;;;5089953;28;20031;-62
2022/01/05 06:02:46;;;;;;;84.90;39.72;;;;;;;;;;5090794;28;20091;-62
2022/01/05 06:05:12;;;;;;;46.38;23.02;;;;;;;;;;5090519;28;20038;-62
2022/01/05 06:07:38;;;;;;;44.53;22.30;;;;;;;;;;5089560;28;20028;-62
2022/01/05 06:10:05;;;;;;;47.38;25.05;;;;;;;;;;5090631;28;20028;-62
2022/01/05 06:12:31;;;;;;;69.30;36.60;;;;;;;;;;5088263;28;20028;-62
2022/01/05 06:14:57;;;;;;;64.55;33.70;;;;;;;;;;5089890;28;20069;-63
2022/01/05 06:17:23;;;;;;;58.63;31.70;;;;;;;;;;5089542;28;20032;-62
2022/01/05 06:19:49;;;;;;;107.55;52.80;;;;;;;;;;5089475;28;20512;-62
2022/01/05 06:22:17;;;;;;;61.78;31.25;;;;;;;;;;5089864;28;20028;-62
2022/01/05 06:24:44;;;;;;;91.00;45.60;;;;;;;;;;5089444;28;20107;-62
2022/01/05 06:27:10;;;;;;;99.68;48.63;;;;;;;;;;5087321;28;20403;-62
2022/01/05 06:29:37;;;;;;;56.63;28.33;;;;;;;;;;5089113;28;20115;-62
2022/01/05 06:32:04;;;;;;;92.80;46.45;;;;;;;;;;5088088;28;20024;-62
2022/01/05 06:34:30;;;;;;;91.57;44.45;;;;;;;;;;5088047;28;20016;-62
2022/01/05 06:36:56;;;;;;;89.15;44.38;;;;;;;;;;5089506;28;20032;-62
2022/01/05 06:39:22;;;;;;;60.08;28.77;;;;;;;;;;5089907;28;20020;-63
2022/01/05 06:41:49;;;;;;;41.13;21.73;;;;;;;;;;5089712;28;20484;-63
2022/01/05 06:44:15;;;;;;;54.58;28.95;;;;;;;;;;5090823;28;20024;-62
2022/01/05 06:46:41;;;;;;;57.35;30.15;;;;;;;;;;5090084;28;20044;-63
2022/01/05 06:49:07;;;;;;;58.28;31.05;;;;;;;;;;5089887;28;20024;-62
2022/01/05 06:51:33;;;;;;;57.00;30.95;;;;;;;;;;5090392;28;20013;-63
2022/01/05 06:54:00;;;;;;;59.00;30.60;;;;;;;;;;5090015;28;20029;-63
2022/01/05 06:56:26;;;;;;;46.03;24.20;;;;;;;;;;5088637;28;20111;-64
2022/01/05 06:58:52;;;;;;;44.42;23.33;;;;;;;;;;5079283;28;20024;-63
2022/01/05 07:01:18;;;;;;;49.63;25.95;;;;;;;;;;5075162;28;20019;-62
2022/01/05 07:03:44;;;;;;;51.10;26.40;;;;;;;;;;5074668;28;20027;-61
2022/01/05 07:06:11;;;;;;;51.22;26.55;;;;;;;;;;5075736;28;20020;-61
2022/01/05 07:08:37;;;;;;;41.53;23.20;;;;;;;;;;5076044;28;20021;-62
2022/01/05 07:11:03;;;;;;;40.03;21.35;;;;;;;;;;5075653;28;20052;-61
2022/01/05 07:13:29;;;;;;;40.17;22.48;;;;;;;;;;5076213;28;20032;-62
2022/01/05 07:15:55;;;;;;;38.53;24.02;;;;;;;;;;5076190;28;20089;-62
2022/01/05 07:18:21;;;;;;;46.53;23.17;;;;;;;;;;5075797;28;20016;-62
2022/01/05 07:20:48;;;;;;;45.90;22.70;;;;;;;;;;5076436;28;20017;-62
2022/01/05 07:23:14;;;;;;;43.58;24.02;;;;;;;;;;5075491;28;20025;-63
2022/01/05 07:25:40;;;;;;;40.72;22.83;;;;;;;;;;5075812;28;20064;-62
2022/01/05 07:28:06;;;;;;;43.20;24.05;;;;;;;;;;5075612;28;20058;-62
2022/01/05 07:30:33;;;;;;;46.65;24.67;;;;;;;;;;5074360;28;20079;-63
2022/01/05 07:32:59;;;;;;;51.92;29.35;;;;;;;;;;5075622;28;20025;-61
2022/01/05 07:35:25;;;;;;;47.15;28.98;;;;;;;;;;5076073;28;20102;-63
2022/01/05 07:37:51;;;;;;;43.28;24.90;;;;;;;;;;5075437;28;20461;-61
2022/01/05 07:40:18;;;;;;;48.25;24.77;;;;;;;;;;5075977;28;20350;-60
2022/01/05 07:42:44;;;;;;;48.33;26.25;;;;;;;;;;5075428;28;20017;-62
2022/01/05 07:45:10;;;;;;;51.45;26.75;;;;;;;;;;5075421;28;20431;-62
2022/01/05 07:47:37;;;;;;;48.47;26.00;;;;;;;;;;5075694;28;20102;-63
2022/01/05 07:50:04;;;;;;;43.20;23.05;;;;;;;;;;5075326;28;20024;-63
2022/01/05 07:52:30;;;;;;;51.63;26.30;;;;;;;;;;5075145;28;20027;-62
2022/01/05 07:54:56;;;;;;;44.22;24.02;;;;;;;;;;5075395;28;20115;-63
2022/01/05 07:57:22;;;;;;;46.50;23.15;;;;;;;;;;5075616;28;20028;-63
2022/01/05 07:59:48;;;;;;;36.58;20.13;;;;;;;;;;5074748;28;20021;-63
2022/01/05 08:02:14;;;;;;;36.92;20.10;;;;;;;;;;5075286;28;20016;-63
2022/01/05 08:04:41;;;;;;;36.65;20.90;;;;;;;;;;5074905;28;20016;-63
2022/01/05 08:07:07;;;;;;;39.72;22.30;;;;;;;;;;5074850;28;20130;-63
2022/01/05 08:09:33;;;;;;;44.78;25.90;;;;;;;;;;5073945;28;20111;-63
2022/01/05 08:11:59;;;;;;;40.30;21.27;;;;;;;;;;5074765;28;20035;-63
2022/01/05 08:14:25;;;;;;;44.17;23.83;;;;;;;;;;5075046;28;20025;-62
2022/01/05 08:16:51;;;;;;;38.75;22.58;;;;;;;;;;5075275;28;20036;-63
2022/01/05 08:19:17;;;;;;;36.63;21.15;;;;;;;;;;5074359;28;20094;-63
2022/01/05 08:21:44;;;;;;;37.80;22.55;;;;;;;;;;5074633;28;20027;-62
2022/01/05 08:24:11;;;;;;;38.63;21.27;;;;;;;;;;5074493;28;20020;-63
2022/01/05 08:26:37;;;;;;;42.65;23.20;;;;;;;;;;5074352;28;20025;-62
2022/01/05 08:29:03;;;;;;;45.15;23.65;;;;;;;;;;5074709;28;20020;-63
2022/01/05 08:31:30;;;;;;;39.30;23.08;;;;;;;;;;5074312;28;20038;-60
2022/01/05 08:33:59;;;;;;;40.65;22.23;;;;;;;;;;5074307;28;20050;-63
2022/01/05 08:36:25;;;;;;;39.40;23.45;;;;;;;;;;5074478;28;20024;-61
2022/01/05 08:38:51;;;;;;;38.72;23.00;;;;;;;;;;5074446;28;20028;-61
2022/01/05 08:41:17;;;;;;;36.45;20.52;;;;;;;;;;5073833;28;20530;-61
2022/01/05 08:43:44;;;;;;;34.40;20.75;;;;;;;;;;5074755;28;20020;-62
2022/01/05 08:46:10;;;;;;;32.05;20.63;;;;;;;;;;5074287;28;20084;-61
2022/01/05 08:48:39;;;;;;;32.60;19.58;;;;;;;;;;5074107;28;20464;-61
2022/01/05 08:51:05;;;;;;;32.65;19.30;;;;;;;;;;5073941;28;20056;-62
2022/01/05 08:53:31;;;;;;;35.70;19.95;;;;;;;;;;5074199;28;20034;-61
2022/01/05 08:55:57;;;;;;;37.65;22.38;;;;;;;;;;5073952;28;20031;-61
2022/01/05 08:58:23;;;;;;;33.92;19.95;;;;;;;;;;5074158;28;20077;-62
2022/01/05 09:00:50;;;;;;;38.85;22.85;;;;;;;;;;5073781;28;20024;-60
2022/01/05 09:03:18;;;;;;;32.58;20.92;;;;;;;;;;5072480;28;20013;-62
2022/01/05 09:05:46;;;;;;;38.65;20.40;;;;;;;;;;5070820;28;20431;-63
2022/01/05 09:08:13;;;;;;;35.60;20.52;;;;;;;;;;5073181;28;20055;-62
2022/01/05 09:10:39;;;;;;;36.40;21.35;;;;;;;;;;5072052;28;20052;-62
2022/01/05 09:13:06;;;;;;;37.85;22.08;;;;;;;;;;5073466;28;20062;-62
2022/01/05 09:15:34;;;;;;;41.97;24.85;;;;;;;;;;5073770;28;20103;-62
2022/01/05 09:18:01;;;;;;;48.00;29.35;;;;;;;;;;5074247;28;20024;-61
2022/01/05 09:20:32;;;;;;;40.17;24.60;;;;;;;;;;5072536;28;20361;-64
2022/01/05 09:23:02;;;;;;;40.85;26.58;;;;;;;;;;5072741;28;20021;-66
2022/01/05 09:25:30;;;;;;;37.10;22.60;;;;;;;;;;5073229;28;20031;-64
2022/01/05 09:27:56;;;;;;;31.42;19.42;;;;;;;;;;5072552;28;20028;-61
2022/01/05 09:30:23;;;;;;;35.00;19.13;;;;;;;;;;5072241;28;20028;-61
2022/01/05 09:32:50;;;;;;;23.20;16.60;;;;;;;;;;5073564;28;20047;-62
2022/01/05 09:35:19;;;;;;;29.80;18.38;;;;;;;;;;5073521;28;20075;-63
2022/01/05 09:43:07;;;;;;;29.67;18.13;;;;;;;;;;5073615;28;20040;-61
2022/01/05 09:45:35;;;;;;;32.97;19.20;;;;;;;;;;5073326;28;20044;-62
2022/01/05 09:48:20;;;;;;;27.75;18.95;;;;;;;;;;5073828;28;20048;-62
2022/01/05 09:50:51;;;;;;;31.17;19.73;;;;;;;;;;5073171;28;20055;-63
2022/01/05 09:53:17;;;;;;;34.90;19.67;;;;;;;;;;5073583;28;20024;-62
2022/01/05 09:55:45;;;;;;;28.52;18.48;;;;;;;;;;5073537;28;20031;-62
2022/01/05 09:58:12;;;;;;;29.20;19.10;;;;;;;;;;5073204;28;20095;-61
2022/01/05 10:00:38;;;;;;;28.42;18.52;;;;;;;;;;5073705;28;20017;-61
2022/01/05 10:03:07;;;;;;;29.77;18.48;;;;;;;;;;5073232;28;20029;-62
2022/01/05 10:05:33;;;;;;;27.88;18.80;;;;;;;;;;5071919;28;20373;-63
2022/01/05 10:07:59;;;;;;;27.65;17.58;;;;;;;;;;5073329;28;20036;-62
2022/01/05 10:10:25;;;;;;;27.77;18.05;;;;;;;;;;5073365;28;20021;-62
2022/01/05 10:12:51;;;;;;;26.52;16.75;;;;;;;;;;5072750;28;20025;-61
2022/01/05 10:15:18;;;;;;;26.50;16.90;;;;;;;;;;5073049;28;20017;-61
2022/01/05 10:17:44;;;;;;;33.75;17.00;;;;;;;;;;5073567;28;20070;-62
2022/01/05 10:20:12;;;;;;;24.67;14.50;;;;;;;;;;5072738;28;20414;-60
2022/01/05 10:22:39;;;;;;;29.20;16.00;;;;;;;;;;5072962;28;20489;-61
2022/01/05 10:25:07;;;;;;;24.40;14.45;;;;;;;;;;5072611;28;20469;-62
2022/01/05 10:27:33;;;;;;;29.77;15.98;;;;;;;;;;5072839;28;20025;-62
2022/01/05 10:30:00;;;;;;;28.88;16.73;;;;;;;;;;5072897;28;20024;-61
2022/01/05 10:32:27;;;;;;;32.28;19.40;;;;;;;;;;5072467;28;20078;-62
2022/01/05 10:35:01;;;;;;;22.67;14.95;;;;;;;;;;5076852;28;20350;-62
2022/01/05 10:37:27;;;;;;;22.02;14.02;;;;;;;;;;5076601;28;20477;-62
2022/01/05 10:40:13;;;;;;;24.38;12.23;;;;;;;;;;5076154;28;20024;-62
2022/01/05 10:42:39;;;;;;;15.95;10.05;;;;;;;;;;5075375;28;20028;-62
2022/01/05 10:45:07;;;;;;;19.13;11.55;;;;;;;;;;5076684;28;20047;-62
2022/01/05 10:47:34;;;;;;;32.55;15.68;;;;;;;;;;5075876;28;20048;-62
2022/01/05 10:50:00;;;;;;;27.80;14.70;;;;;;;;;;5076991;28;20020;-61
2022/01/05 10:52:30;;;;;;;17.83;11.02;;;;;;;;;;5076606;28;20177;-62
2022/01/05 10:55:14;;;;;;;18.52;10.07;;;;;;;;;;5076268;28;20115;-62
2022/01/05 10:57:54;;;;;;;21.75;10.95;;;;;;;;;;5076049;28;20409;-62
2022/01/05 11:00:30;;;;;;;21.45;13.68;;;;;;;;;;5076615;28;20043;-62
2022/01/05 11:02:56;;;;;;;27.55;14.20;;;;;;;;;;5076359;28;20031;-62
2022/01/05 11:05:22;;;;;;;23.30;12.93;;;;;;;;;;5076897;28;20364;-62
2022/01/05 11:07:48;;;;;;;18.52;10.80;;;;;;;;;;5075375;28;20085;-61
2022/01/05 11:10:18;;;;;;;16.73;11.05;;;;;;;;;;5075803;28;20020;-62
2022/01/05 11:12:46;;;;;;;19.93;11.17;;;;;;;;;;5076120;28;20031;-61
2022/01/05 11:15:27;;;;;;;36.05;19.58;;;;;;;;;;5075548;28;20048;-60
2022/01/05 11:18:09;;;;;;;29.02;15.15;;;;;;;;;;5076128;28;20111;-60
2022/01/05 11:20:40;;;;;;;26.05;14.95;;;;;;;;;;5076891;28;20075;-62
2022/01/05 11:23:07;;;;;;;24.60;13.27;;;;;;;;;;5075822;28;20028;-62
2022/01/05 11:25:35;;;;;;;20.08;10.32;;;;;;;;;;5075721;28;20453;-62
2022/01/05 11:28:02;;;;;;;17.77;10.73;;;;;;;;;;5075314;28;20029;-64
2022/01/05 11:30:28;;;;;;;22.17;12.55;;;;;;;;;;5076508;28;20029;-63
2022/01/05 11:32:55;;;;;;;20.40;10.77;;;;;;;;;;5076001;28;20427;-60
2022/01/05 11:35:21;;;;;;;26.08;11.98;;;;;;;;;;5075214;28;20020;-60
2022/01/05 11:37:47;;;;;;;15.50;8.77;;;;;;;;;;5075767;28;20020;-60
2022/01/05 11:40:14;;;;;;;24.90;15.13;;;;;;;;;;5075425;28;20024;-62
2022/01/05 11:42:40;;;;;;;21.75;11.68;;;;;;;;;;5075318;28;20477;-61
2022/01/05 11:45:07;;;;;;;20.80;13.13;;;;;;;;;;5075496;28;20021;-62
2022/01/05 11:47:38;;;;;;;20.40;13.48;;;;;;;;;;5075033;28;20054;-61
2022/01/05 11:50:13;;;;;;;16.98;8.20;;;;;;;;;;5075403;28;20119;-62
2022/01/05 11:52:59;;;;;;;16.52;9.82;;;;;;;;;;5075224;28;20031;-62
2022/01/05 11:55:26;;;;;;;16.08;8.45;;;;;;;;;;5075023;28;20020;-63
2022/01/05 11:58:11;;;;;;;15.32;8.48;;;;;;;;;;5074737;28;20073;-62
2022/01/05 12:00:37;;;;;;;13.48;8.77;;;;;;;;;;5075294;28;20028;-62
2022/01/05 12:03:04;;;;;;;15.68;9.65;;;;;;;;;;5074715;28;20369;-61
2022/01/05 12:05:50;;;;;;;16.98;9.45;;;;;;;;;;5073957;28;20074;-61
2022/01/05 12:08:51;;;;;;;21.05;11.40;;;;;;;;;;5074672;28;20043;-61
2022/01/05 12:11:27;;;;;;;21.38;10.45;;;;;;;;;;5012600;28;20490;-62
2022/01/05 12:13:53;;;;;;;19.48;9.70;;;;;;;;;;5066509;28;20033;-62
2022/01/05 12:16:19;;;;;;;17.80;10.60;;;;;;;;;;5074368;28;20024;-62
2022/01/05 12:19:02;;;;;;;18.83;11.07;;;;;;;;;;5074219;28;20023;-62
2022/01/05 12:21:41;;;;;;;18.40;10.27;;;;;;;;;;5074165;28;20484;-62
2022/01/05 12:24:08;;;;;;;20.25;12.93;;;;;;;;;;5073750;28;20059;-62
2022/01/05 12:26:34;;;;;;;19.83;12.15;;;;;;;;;;5072975;28;20031;-62
2022/01/05 12:29:00;;;;;;;28.67;13.13;;;;;;;;;;5074420;28;20431;-62
2022/01/05 12:31:45;;;;;;;23.08;12.25;;;;;;;;;;5074388;28;20350;-62
2022/01/05 12:34:11;;;;;;;20.15;11.85;;;;;;;;;;5074854;28;20027;-62
2022/01/05 12:36:39;;;;;;;21.80;13.20;;;;;;;;;;5074840;28;20063;-61
2022/01/05 12:39:06;;;;;;;25.27;13.15;;;;;;;;;;5073952;28;20473;-62
2022/01/05 12:41:36;;;;;;;32.03;16.58;;;;;;;;;;5074483;28;20033;-65
2022/01/05 12:44:22;;;;;;;51.83;27.05;;;;;;;;;;5074498;28;20028;-61
2022/01/05 12:46:49;;;;;;;48.90;25.40;;;;;;;;;;5063205;28;20052;-61
2022/01/05 12:49:17;;;;;;;37.63;20.67;;;;;;;;;;5074323;28;20016;-61
2022/01/05 12:51:44;;;;;;;45.38;24.63;;;;;;;;;;5074229;28;20035;-62
2022/01/05 12:54:17;;;;;;;58.97;31.05;;;;;;;;;;5074182;28;20109;-61
2022/01/05 12:56:43;;;;;;;50.97;23.48;;;;;;;;;;5074326;28;20107;-61
2022/01/05 12:59:15;;;;;;;32.10;16.90;;;;;;;;;;5074081;28;20024;-62
2022/01/05 13:01:44;;;;;;;29.23;16.85;;;;;;;;;;5074255;28;20017;-62
2022/01/05 13:04:10;;;;;;;30.30;16.35;;;;;;;;;;5073754;28;20538;-62
2022/01/05 13:06:37;;;;;;;25.58;16.55;;;;;;;;;;5073742;28;20039;-62
2022/01/05 13:09:07;;;;;;;30.67;17.58;;;;;;;;;;5073936;28;20021;-61
2022/01/05 13:11:44;;;;;;;29.00;14.02;;;;;;;;;;5074276;28;20016;-61
2022/01/05 13:14:10;;;;;;;24.25;13.95;;;;;;;;;;5073501;28;20380;-62
2022/01/05 13:16:36;;;;;;;20.35;11.82;;;;;;;;;;5073937;28;20091;-61
2022/01/05 13:19:03;;;;;;;21.02;11.30;;;;;;;;;;5073861;28;20043;-61
2022/01/05 13:21:45;;;;;;;19.63;10.50;;;;;;;;;;5073189;28;20116;-62
2022/01/05 13:24:12;;;;;;;21.55;11.60;;;;;;;;;;5073829;28;20360;-62
2022/01/05 13:26:58;;;;;;;19.52;11.50;;;;;;;;;;5073906;28;20024;-60
2022/01/05 13:29:28;;;;;;;18.58;11.13;;;;;;;;;;5073723;28;20020;-63
2022/01/05 13:32:01;;;;;;;23.02;12.63;;;;;;;;;;5072354;28;20112;-60
2022/01/05 13:34:36;;;;;;;45.85;24.00;;;;;;;;;;5071940;28;20020;-60
2022/01/05 13:37:04;;;;;;;39.28;22.08;;;;;;;;;;5072381;28;20042;-62
2022/01/05 13:39:48;;;;;;;32.20;18.35;;;;;;;;;;5071947;28;20099;-61
2022/01/05 13:42:18;;;;;;;34.38;19.85;;;;;;;;;;5070113;28;20031;-61
2022/01/05 13:44:45;;;;;;;74.07;40.83;;;;;;;;;;5073553;28;20022;-61
2022/01/05 13:47:12;;;;;;;33.60;18.33;;;;;;;;;;5073530;28;20048;-60
2022/01/05 13:49:39;;;;;;;29.65;16.17;;;;;;;;;;5071406;28;20100;-61
2022/01/05 13:52:10;;;;;;;30.48;17.20;;;;;;;;;;5072321;28;20013;-61
2022/01/05 13:54:38;;;;;;;25.13;15.40;;;;;;;;;;5072128;28;20025;-60
2022/01/05 13:57:04;;;;;;;17.70;10.60;;;;;;;;;;5071444;28;20016;-61
2022/01/05 13:59:38;;;;;;;22.00;10.55;;;;;;;;;;5072041;28;20103;-61
2022/01/05 14:02:08;;;;;;;22.67;11.02;;;;;;;;;;5071339;28;20495;-61
2022/01/05 14:04:46;;;;;;;18.65;9.82;;;;;;;;;;5071817;28;20024;-61
2022/01/05 14:07:16;;;;;;;19.00;11.45;;;;;;;;;;5069942;28;20037;-61
2022/01/05 14:09:43;;;;;;;27.63;13.10;;;;;;;;;;5075082;28;20020;-61
2022/01/05 14:12:29;;;;;;;25.30;14.05;;;;;;;;;;5076100;28;20028;-61
2022/01/05 14:14:59;;;;;;;27.25;14.05;;;;;;;;;;5075432;28;20070;-61
2022/01/05 14:17:25;;;;;;;26.58;14.40;;;;;;;;;;5075627;28;20020;-61
2022/01/05 14:19:52;;;;;;;24.48;14.57;;;;;;;;;;5076656;28;20024;-60
2022/01/05 14:22:19;;;;;;;29.48;15.10;;;;;;;;;;5076388;28;20013;-60